createdAt,value
2023-05-19T00:00:59.219Z,53.40
2023-05-19T00:03:25.134Z,53.67
2023-05-19T00:05:28.474Z,53.73
2023-05-19T00:07:32.803Z,53.76
2023-05-19T00:09:35.738Z,53.71
2023-05-19T00:11:39.911Z,53.90
2023-05-19T00:13:42.869Z,53.79
2023-05-19T00:15:46.483Z,53.88
2023-05-19T00:17:52.906Z,53.93
2023-05-19T00:20:03.155Z,53.84
2023-05-19T00:22:06.598Z,53.84
2023-05-19T00:24:09.805Z,53.89
2023-05-19T00:26:15.952Z,54.03
2023-05-19T00:28:22.152Z,54.15
2023-05-19T00:30:29.518Z,54.23
2023-05-19T00:32:37.222Z,54.41
2023-05-19T00:34:48.868Z,54.44
2023-05-19T00:36:54.838Z,54.48
2023-05-19T00:38:57.553Z,54.59
2023-05-19T00:41:03.147Z,54.66
2023-05-19T00:43:08.585Z,54.47
2023-05-19T00:45:12.129Z,54.49
2023-05-19T00:47:15.238Z,54.46
2023-05-19T00:49:18.417Z,54.33
2023-05-19T00:51:23.294Z,54.41
2023-05-19T00:53:30.580Z,54.39
2023-05-19T00:55:36.379Z,54.45
2023-05-19T00:57:39.724Z,54.59
2023-05-19T00:59:45.625Z,54.76
2023-05-19T01:01:49.616Z,54.75
2023-05-19T01:03:54.364Z,54.99
2023-05-19T01:05:58.202Z,54.98
2023-05-19T01:08:02.535Z,55.08
2023-05-19T01:10:06.731Z,55.11
2023-05-19T01:12:17.907Z,55.28
2023-05-19T01:14:21.502Z,55.34
2023-05-19T01:16:35.511Z,55.09
2023-05-19T01:19:03.788Z,55.24
2023-05-19T01:21:37.186Z,55.12
2023-05-19T01:23:59.504Z,55.04
2023-05-19T01:26:39.939Z,55.04
2023-05-19T01:29:04.324Z,55.06
2023-05-19T01:31:11.787Z,55.02
2023-05-19T01:33:21.654Z,55.07
2023-05-19T01:35:26.324Z,55.20
2023-05-19T01:37:30.222Z,55.09
2023-05-19T01:39:36.436Z,55.08
2023-05-19T01:41:42.122Z,55.22
2023-05-19T01:43:46.192Z,55.35
2023-05-19T01:45:49.169Z,55.28
2023-05-19T01:47:55.846Z,55.27
2023-05-19T01:49:58.763Z,55.42
2023-05-19T01:52:03.002Z,55.49
2023-05-19T01:54:17.186Z,55.45
2023-05-19T01:56:35.140Z,55.48
2023-05-19T01:58:44.834Z,55.58
2023-05-19T02:00:54.597Z,55.60
2023-05-19T02:03:29.541Z,55.39
2023-05-19T02:06:05.178Z,55.55
2023-05-19T02:08:18.470Z,55.51
2023-05-19T02:10:34.369Z,55.52
2023-05-19T02:12:40.710Z,55.44
2023-05-19T02:15:00.154Z,55.34
2023-05-19T02:17:07.655Z,55.54
2023-05-19T02:19:21.038Z,55.58
2023-05-19T02:21:25.619Z,55.59
2023-05-19T02:23:28.935Z,55.63
2023-05-19T02:25:33.350Z,55.59
2023-05-19T02:27:40.242Z,55.53
2023-05-19T02:29:44.567Z,55.51
2023-05-19T02:31:48.566Z,55.41
2023-05-19T02:33:53.574Z,55.44
2023-05-19T02:35:58.235Z,55.46
2023-05-19T02:38:02.441Z,55.41
2023-05-19T02:40:06.014Z,55.48
2023-05-19T02:42:10.587Z,55.40
2023-05-19T02:44:13.499Z,55.69
2023-05-19T02:46:16.303Z,55.72
2023-05-19T02:48:21.316Z,55.73
2023-05-19T02:50:26.396Z,55.81
2023-05-19T02:52:29.395Z,55.87
2023-05-19T02:54:36.349Z,55.77
2023-05-19T02:56:40.845Z,55.94
2023-05-19T02:58:43.491Z,55.91
2023-05-19T03:00:46.358Z,56.02
2023-05-19T03:02:50.320Z,56.09
2023-05-19T03:04:54.627Z,56.11
2023-05-19T03:06:57.803Z,56.05
2023-05-19T03:09:01.316Z,56.09
2023-05-19T03:11:04.836Z,55.99
2023-05-19T03:13:07.467Z,55.98
2023-05-19T03:15:13.880Z,56.04
2023-05-19T03:17:19.627Z,55.99
2023-05-19T03:19:22.833Z,56.14
2023-05-19T03:21:26.696Z,56.07
2023-05-19T03:23:30.970Z,56.00
2023-05-19T03:25:34.273Z,56.27
2023-05-19T03:27:38.242Z,56.19
2023-05-19T03:29:42.361Z,56.51
2023-05-19T03:31:45.051Z,56.46
2023-05-19T03:33:48.644Z,56.54
2023-05-19T03:35:53.051Z,56.45
2023-05-19T03:37:55.851Z,56.63
2023-05-19T03:40:02.177Z,56.52
2023-05-19T03:42:05.764Z,56.64
2023-05-19T03:44:10.066Z,56.42
2023-05-19T03:46:14.528Z,56.53
2023-05-19T03:48:26.955Z,56.55
2023-05-19T03:50:55.892Z,56.53
2023-05-19T03:53:03.963Z,56.60
2023-05-19T03:55:10.107Z,56.67
2023-05-19T03:57:14.455Z,56.82
2023-05-19T03:59:17.038Z,56.91
2023-05-19T04:01:19.842Z,56.93
2023-05-19T04:03:23.102Z,57.09
2023-05-19T04:05:26.106Z,56.99
2023-05-19T04:07:31.709Z,56.96
2023-05-19T04:09:35.574Z,57.11
2023-05-19T04:11:40.536Z,57.05
2023-05-19T04:13:45.180Z,57.07
2023-05-19T04:15:49.025Z,57.23
2023-05-19T04:17:52.942Z,57.43
2023-05-19T04:19:57.470Z,57.48
2023-05-19T04:22:00.470Z,57.67
2023-05-19T04:24:06.730Z,57.55
2023-05-19T04:26:12.692Z,57.68
2023-05-19T04:28:17.997Z,57.90
2023-05-19T04:30:23.312Z,57.88
2023-05-19T04:32:29.431Z,58.04
2023-05-19T04:34:40.322Z,57.90
2023-05-19T04:36:43.617Z,58.23
2023-05-19T04:38:49.488Z,58.09
2023-05-19T04:40:54.056Z,58.26
2023-05-19T04:42:58.062Z,58.27
2023-05-19T04:45:03.299Z,58.28
2023-05-19T04:47:09.308Z,58.30
2023-05-19T04:49:13.594Z,58.23
2023-05-19T04:51:20.175Z,58.23
2023-05-19T04:53:25.970Z,58.35
2023-05-19T04:55:30.149Z,58.24
2023-05-19T04:57:35.027Z,58.28
2023-05-19T04:59:39.199Z,58.09
2023-05-19T05:01:43.668Z,58.14
2023-05-19T05:03:47.750Z,57.91
2023-05-19T05:05:52.098Z,58.06
2023-05-19T05:07:55.094Z,58.23
2023-05-19T05:09:58.952Z,58.16
2023-05-19T05:12:03.329Z,57.89
2023-05-19T05:14:09.528Z,57.83
2023-05-19T05:16:18.944Z,57.49
2023-05-19T05:18:31.014Z,57.50
2023-05-19T05:20:35.593Z,57.47
2023-05-19T05:22:39.722Z,57.36
2023-05-19T05:24:44.388Z,57.30
2023-05-19T05:26:52.233Z,57.18
2023-05-19T05:28:57.032Z,57.11
2023-05-19T05:31:00.957Z,56.86
2023-05-19T05:33:04.470Z,56.77
2023-05-19T05:35:10.657Z,56.80
2023-05-19T05:37:15.799Z,56.76
2023-05-19T05:39:22.633Z,56.94
2023-05-19T05:41:27.390Z,56.83
2023-05-19T05:43:32.260Z,57.13
2023-05-19T05:45:39.138Z,57.14
2023-05-19T05:47:42.800Z,57.29
2023-05-19T05:49:48.233Z,57.22
2023-05-19T05:52:05.874Z,57.10
2023-05-19T05:54:26.254Z,57.30
2023-05-19T05:56:29.784Z,57.25
2023-05-19T05:58:33.086Z,57.28
2023-05-19T06:00:39.237Z,57.38
2023-05-19T06:02:48.048Z,57.48
2023-05-19T06:04:54.155Z,57.48
2023-05-19T06:07:06.809Z,57.25
2023-05-19T06:09:12.737Z,57.29
2023-05-19T06:11:27.193Z,57.15
2023-05-19T06:13:31.263Z,57.29
2023-05-19T06:15:34.387Z,57.42
2023-05-19T06:17:46.058Z,57.42
2023-05-19T06:19:57.030Z,57.66
2023-05-19T06:22:07.433Z,57.45
2023-05-19T06:24:11.246Z,57.36
2023-05-19T06:26:23.228Z,57.41
2023-05-19T06:28:41.661Z,57.41
2023-05-19T06:30:48.826Z,57.30
2023-05-19T06:33:14.408Z,57.26
2023-05-19T06:35:18.021Z,56.84
2023-05-19T06:37:24.997Z,56.62
2023-05-19T06:39:28.227Z,56.05
2023-05-19T06:41:31.416Z,55.86
2023-05-19T06:43:37.368Z,55.78
2023-05-19T06:45:47.574Z,55.50
2023-05-19T06:47:58.720Z,55.12
2023-05-19T06:50:02.962Z,54.82
2023-05-19T06:52:12.212Z,54.49
2023-05-19T06:54:19.117Z,54.44
2023-05-19T06:56:23.103Z,54.04
2023-05-19T06:58:27.207Z,54.04
2023-05-19T07:00:33.969Z,53.89
2023-05-19T07:03:17.099Z,53.67
2023-05-19T07:05:21.083Z,53.38
2023-05-19T07:07:28.428Z,53.14
2023-05-19T07:09:36.550Z,52.74
2023-05-19T07:11:43.685Z,52.95
2023-05-19T07:13:47.961Z,52.75
2023-05-19T07:15:56.178Z,52.36
2023-05-19T07:18:00.667Z,52.00
2023-05-19T07:20:26.094Z,52.25
2023-05-19T07:22:32.532Z,52.25
2023-05-19T07:24:39.758Z,52.09
2023-05-19T07:26:45.277Z,51.38
2023-05-19T07:28:49.787Z,50.88
2023-05-19T07:30:53.829Z,51.11
2023-05-19T07:32:56.546Z,51.28
2023-05-19T07:35:20.450Z,51.25
2023-05-19T07:40:05.246Z,50.65
2023-05-19T07:42:12.959Z,50.33
2023-05-19T07:44:20.193Z,49.97
2023-05-19T07:46:27.703Z,49.98
2023-05-19T07:48:39.502Z,49.62
2023-05-19T07:50:45.169Z,49.28
2023-05-19T07:52:50.230Z,49.11
2023-05-19T07:54:56.318Z,49.36
2023-05-19T07:57:12.911Z,49.12
2023-05-19T07:59:18.320Z,48.91
2023-05-19T08:01:21.440Z,48.54
2023-05-19T08:03:26.049Z,48.53
2023-05-19T08:07:53.326Z,46.96
2023-05-19T08:09:56.367Z,46.85
2023-05-19T08:12:04.947Z,47.32
2023-05-19T08:14:08.430Z,47.50
2023-05-19T08:16:14.090Z,47.22
2023-05-19T08:18:18.848Z,46.79
2023-05-19T08:20:23.089Z,46.83
2023-05-19T08:22:33.392Z,46.66
2023-05-19T08:24:36.595Z,46.47
2023-05-19T08:26:45.079Z,46.13
2023-05-19T08:28:49.993Z,46.35
2023-05-19T08:31:04.524Z,46.24
2023-05-19T08:33:17.231Z,46.19
2023-05-19T08:35:25.223Z,45.90
2023-05-19T08:37:34.264Z,45.93
2023-05-19T08:39:47.370Z,45.65
2023-05-19T08:42:04.840Z,45.71
2023-05-19T08:44:09.327Z,45.43
2023-05-19T08:46:15.328Z,45.05
2023-05-19T08:48:20.444Z,44.61
2023-05-19T08:50:36.197Z,44.92
2023-05-19T08:53:24.680Z,43.96
2023-05-19T08:56:10.979Z,43.66
2023-05-19T08:58:16.403Z,43.44
2023-05-19T09:00:20.757Z,43.14
2023-05-19T09:02:28.843Z,42.68
2023-05-19T09:04:34.391Z,42.63
2023-05-19T09:06:42.938Z,42.84
2023-05-19T09:08:51.283Z,42.65
2023-05-19T09:10:55.589Z,42.92
2023-05-19T09:12:58.579Z,42.93
2023-05-19T09:15:05.399Z,42.40
2023-05-19T09:17:08.443Z,42.56
2023-05-19T09:19:16.065Z,42.73
2023-05-19T09:21:21.016Z,42.51
2023-05-19T09:23:25.200Z,42.44
2023-05-19T09:25:29.538Z,43.02
2023-05-19T09:27:35.367Z,43.27
2023-05-19T09:29:38.389Z,42.56
2023-05-19T09:31:52.550Z,41.98
2023-05-19T09:33:55.158Z,41.68
2023-05-19T09:35:59.266Z,41.26
2023-05-19T09:38:05.785Z,40.99
2023-05-19T09:40:11.910Z,40.91
2023-05-19T09:42:18.411Z,41.18
2023-05-19T09:44:26.732Z,40.81
2023-05-19T09:46:30.482Z,41.09
2023-05-19T09:48:35.826Z,41.16
2023-05-19T09:50:41.084Z,41.37
2023-05-19T09:52:52.689Z,41.05
2023-05-19T09:54:57.838Z,40.59
2023-05-19T09:57:05.233Z,40.33
2023-05-19T09:59:12.602Z,40.59
2023-05-19T10:01:16.915Z,40.38
2023-05-19T10:03:33.384Z,39.88
2023-05-19T10:05:39.796Z,39.81
2023-05-19T10:07:55.013Z,38.72
2023-05-19T10:10:00.803Z,38.87
2023-05-19T10:12:07.329Z,39.41
2023-05-19T10:14:13.022Z,40.01
2023-05-19T10:16:19.173Z,39.99
2023-05-19T10:18:31.333Z,40.15
2023-05-19T10:20:36.354Z,39.89
2023-05-19T10:22:45.611Z,39.38
2023-05-19T10:24:51.418Z,39.66
2023-05-19T10:27:01.883Z,39.10
2023-05-19T10:29:06.729Z,38.80
2023-05-19T10:31:16.665Z,38.87
2023-05-19T10:33:23.156Z,39.01
2023-05-19T10:35:54.184Z,38.49
2023-05-19T10:38:24.592Z,38.07
2023-05-19T10:40:31.066Z,37.90
2023-05-19T10:42:59.362Z,38.17
2023-05-19T10:45:16.292Z,38.37
2023-05-19T10:47:26.202Z,38.21
2023-05-19T10:49:36.995Z,38.12
2023-05-19T10:51:45.536Z,37.98
2023-05-19T10:53:50.533Z,37.44
2023-05-19T10:55:57.094Z,37.08
2023-05-19T10:58:00.598Z,37.14
2023-05-19T11:00:11.939Z,37.63
2023-05-19T11:02:38.979Z,37.55
2023-05-19T11:04:50.328Z,38.06
2023-05-19T11:06:55.757Z,37.87
2023-05-19T11:09:22.582Z,37.36
2023-05-19T11:11:47.126Z,37.46
2023-05-19T11:13:56.878Z,37.67
2023-05-19T11:16:09.376Z,37.85
2023-05-19T11:18:23.000Z,38.15
2023-05-19T11:20:44.462Z,37.74
2023-05-19T11:23:02.015Z,37.60
2023-05-19T11:25:09.945Z,36.93
2023-05-19T11:27:35.241Z,37.36
2023-05-19T11:29:40.186Z,37.64
2023-05-19T11:31:47.602Z,37.11
2023-05-19T11:33:52.921Z,37.33
2023-05-19T11:36:01.220Z,37.92
2023-05-19T11:38:13.472Z,38.17
2023-05-19T11:40:22.144Z,38.54
2023-05-19T11:42:28.001Z,37.96
2023-05-19T11:44:34.270Z,37.74
2023-05-19T11:46:38.509Z,37.51
2023-05-19T11:48:48.912Z,37.05
2023-05-19T11:51:05.043Z,36.97
2023-05-19T11:53:13.617Z,37.11
2023-05-19T11:55:24.904Z,37.16
2023-05-19T11:57:27.973Z,36.79
2023-05-19T11:59:39.974Z,36.96
2023-05-19T12:01:42.746Z,37.35
2023-05-19T12:03:47.187Z,37.65
2023-05-19T12:05:50.808Z,38.26
2023-05-19T12:07:54.006Z,38.00
2023-05-19T12:09:56.842Z,38.03
2023-05-19T12:12:04.282Z,37.76
2023-05-19T12:14:08.751Z,37.75
2023-05-19T12:16:16.217Z,37.78
2023-05-19T12:18:21.755Z,38.10
2023-05-19T12:20:32.876Z,38.13
2023-05-19T12:22:37.431Z,37.60
2023-05-19T12:24:43.000Z,37.88
2023-05-19T12:26:49.079Z,37.51
2023-05-19T12:28:53.832Z,37.26
2023-05-19T12:30:58.807Z,36.95
2023-05-19T12:33:02.905Z,37.09
2023-05-19T12:35:09.612Z,37.27
2023-05-19T12:37:24.362Z,37.69
2023-05-19T12:39:28.394Z,36.95
2023-05-19T12:41:33.792Z,37.59
2023-05-19T12:43:39.529Z,37.80
2023-05-19T12:45:45.465Z,38.46
2023-05-19T12:47:50.153Z,38.36
2023-05-19T12:50:01.209Z,38.16
2023-05-19T12:52:10.506Z,37.99
2023-05-19T12:54:20.789Z,38.57
2023-05-19T12:56:27.464Z,38.75
2023-05-19T12:58:35.117Z,38.94
2023-05-19T13:00:46.811Z,38.87
2023-05-19T13:03:02.377Z,38.69
2023-05-19T13:05:05.867Z,38.52
2023-05-19T13:07:15.971Z,38.84
2023-05-19T13:09:23.224Z,38.62
2023-05-19T13:11:32.926Z,38.40
2023-05-19T13:13:36.197Z,38.51
2023-05-19T13:15:42.314Z,38.37
2023-05-19T13:17:49.135Z,38.29
2023-05-19T13:19:54.510Z,38.23
2023-05-19T13:21:57.424Z,38.45
2023-05-19T13:24:01.531Z,38.06
2023-05-19T13:26:05.554Z,38.19
2023-05-19T13:28:15.768Z,38.44
2023-05-19T13:30:27.424Z,37.90
2023-05-19T13:32:33.366Z,37.84
2023-05-19T13:34:37.488Z,37.57
2023-05-19T13:36:49.137Z,37.07
2023-05-19T13:38:52.897Z,37.51
2023-05-19T13:40:55.774Z,37.90
2023-05-19T13:43:06.211Z,37.90
2023-05-19T13:45:11.063Z,36.77
2023-05-19T13:47:16.807Z,36.86
2023-05-19T13:49:21.055Z,37.36
2023-05-19T13:51:24.547Z,37.79
2023-05-19T13:53:27.463Z,37.57
2023-05-19T13:55:30.151Z,37.33
2023-05-19T13:57:33.484Z,36.88
2023-05-19T13:59:43.088Z,37.03
2023-05-19T14:01:57.134Z,37.04
2023-05-19T14:04:00.902Z,36.46
2023-05-19T14:06:05.300Z,36.60
2023-05-19T14:08:12.150Z,36.76
2023-05-19T14:10:18.045Z,36.60
2023-05-19T14:12:27.521Z,36.92
2023-05-19T14:14:40.105Z,36.70
2023-05-19T14:16:43.399Z,36.18
2023-05-19T14:18:47.274Z,36.40
2023-05-19T14:20:52.452Z,36.83
2023-05-19T14:22:55.541Z,36.63
2023-05-19T14:25:02.278Z,36.69
2023-05-19T14:27:05.026Z,36.53
2023-05-19T14:29:08.983Z,36.46
2023-05-19T14:31:13.448Z,36.75
2023-05-19T14:33:17.571Z,36.84
2023-05-19T14:35:21.061Z,37.04
2023-05-19T14:37:28.849Z,37.27
2023-05-19T14:39:35.362Z,37.34
2023-05-19T14:41:45.058Z,37.31
2023-05-19T14:43:51.320Z,37.12
2023-05-19T14:45:54.452Z,37.29
2023-05-19T14:48:00.469Z,37.23
2023-05-19T14:50:06.427Z,37.14
2023-05-19T14:52:10.644Z,37.04
2023-05-19T14:54:16.413Z,37.48
2023-05-19T14:56:22.092Z,37.36
2023-05-19T14:58:28.184Z,37.38
2023-05-19T15:00:34.182Z,37.60
2023-05-19T15:02:39.183Z,37.50
2023-05-19T15:04:43.621Z,37.77
2023-05-19T15:07:05.730Z,37.53
2023-05-19T15:09:14.720Z,36.92
2023-05-19T15:11:17.373Z,36.78
2023-05-19T15:13:21.770Z,36.85
2023-05-19T15:15:24.838Z,36.78
2023-05-19T15:17:29.816Z,36.76
2023-05-19T15:19:34.328Z,37.05
2023-05-19T15:21:40.403Z,37.50
2023-05-19T15:23:43.443Z,38.11
2023-05-19T15:25:47.980Z,38.06
2023-05-19T15:27:51.277Z,38.17
2023-05-19T15:29:55.585Z,37.83
2023-05-19T15:31:58.300Z,37.76
2023-05-19T15:34:04.782Z,37.72
2023-05-19T15:36:21.306Z,37.97
2023-05-19T15:38:27.817Z,37.92
2023-05-19T15:40:34.789Z,38.30
2023-05-19T15:42:41.895Z,38.55
2023-05-19T15:44:47.809Z,38.53
2023-05-19T15:46:50.948Z,38.70
2023-05-19T15:48:56.680Z,38.48
2023-05-19T15:51:01.314Z,38.71
2023-05-19T15:53:08.172Z,38.57
2023-05-19T15:55:11.790Z,38.86
2023-05-19T15:57:16.823Z,38.94
2023-05-19T15:59:20.313Z,39.29
2023-05-19T16:01:27.796Z,39.32
2023-05-19T16:03:33.330Z,39.40
2023-05-19T16:05:43.328Z,39.63
2023-05-19T16:07:47.859Z,39.50
2023-05-19T16:09:51.909Z,39.57
2023-05-19T16:11:54.694Z,39.83
2023-05-19T16:14:00.163Z,39.94
2023-05-19T16:16:03.322Z,39.99
2023-05-19T16:18:06.953Z,39.90
2023-05-19T16:20:10.851Z,39.92
2023-05-19T16:22:13.659Z,39.97
2023-05-19T16:24:18.775Z,40.03
2023-05-19T16:26:24.552Z,40.00
2023-05-19T16:28:28.077Z,39.81
2023-05-19T16:30:33.302Z,40.19
2023-05-19T16:32:36.762Z,39.99
2023-05-19T16:34:42.696Z,39.98
2023-05-19T16:36:47.124Z,39.85
2023-05-19T16:38:50.230Z,40.08
2023-05-19T16:40:57.554Z,39.99
2023-05-19T16:43:01.656Z,40.07
2023-05-19T16:45:06.776Z,40.07
2023-05-19T16:47:11.667Z,40.32
2023-05-19T16:49:19.736Z,40.34
2023-05-19T16:51:24.660Z,40.25
2023-05-19T16:53:29.596Z,40.65
2023-05-19T16:55:32.532Z,41.04
2023-05-19T16:57:37.379Z,41.26
2023-05-19T16:59:42.692Z,41.04
2023-05-19T17:01:47.997Z,41.22
2023-05-19T17:03:55.617Z,41.28
2023-05-19T17:06:05.227Z,41.33
2023-05-19T17:08:10.964Z,41.73
2023-05-19T17:10:20.848Z,42.13
2023-05-19T17:12:28.725Z,42.07
2023-05-19T17:14:32.516Z,42.00
2023-05-19T17:16:36.065Z,42.27
2023-05-19T17:18:43.731Z,42.45
2023-05-19T17:20:49.768Z,42.44
2023-05-19T17:22:54.953Z,42.54
2023-05-19T17:25:00.754Z,42.25
2023-05-19T17:27:07.616Z,42.08
2023-05-19T17:29:17.098Z,41.92
2023-05-19T17:31:20.724Z,42.13
2023-05-19T17:33:24.926Z,42.28
2023-05-19T17:35:28.608Z,42.45
2023-05-19T17:37:39.188Z,42.41
2023-05-19T17:39:45.085Z,42.46
2023-05-19T17:41:55.082Z,42.63
2023-05-19T17:44:01.315Z,43.05
2023-05-19T17:46:10.191Z,42.71
2023-05-19T17:48:22.814Z,42.89
2023-05-19T17:50:26.825Z,43.15
2023-05-19T17:52:41.212Z,42.85
2023-05-19T17:54:47.957Z,42.87
2023-05-19T17:56:50.995Z,43.31
2023-05-19T17:59:05.405Z,43.47
2023-05-19T18:01:34.340Z,43.64
2023-05-19T18:03:38.172Z,43.77
2023-05-19T18:05:43.411Z,43.82
2023-05-19T18:07:59.735Z,43.91
2023-05-19T18:10:10.825Z,44.26
2023-05-19T18:12:24.172Z,44.53
2023-05-19T18:14:32.171Z,44.54
2023-05-19T18:16:41.786Z,44.78
2023-05-19T18:18:51.030Z,44.95
2023-05-19T18:20:57.008Z,44.89
2023-05-19T18:23:01.781Z,44.99
2023-05-19T18:25:07.261Z,45.38
2023-05-19T18:27:10.834Z,45.50
2023-05-19T18:29:18.706Z,45.31
2023-05-19T18:31:22.944Z,45.32
2023-05-19T18:33:28.716Z,45.33
2023-05-19T18:35:35.750Z,45.68
2023-05-19T18:37:41.260Z,45.85
2023-05-19T18:39:46.813Z,45.99
2023-05-19T18:41:50.973Z,46.14
2023-05-19T18:44:02.165Z,46.15
2023-05-19T18:46:06.230Z,46.52
2023-05-19T18:48:14.039Z,46.42
2023-05-19T18:50:17.778Z,46.61
2023-05-19T18:52:22.049Z,47.08
2023-05-19T18:54:26.484Z,47.11
2023-05-19T18:56:37.879Z,47.24
2023-05-19T18:58:41.792Z,47.40
2023-05-19T19:00:44.526Z,47.42
2023-05-19T19:02:49.432Z,47.81
2023-05-19T19:04:52.477Z,47.65
2023-05-19T19:06:56.026Z,47.86
2023-05-19T19:09:01.034Z,47.97
2023-05-19T19:11:10.855Z,48.17
2023-05-19T19:13:14.258Z,48.16
2023-05-19T19:15:18.442Z,48.53
2023-05-19T19:17:21.471Z,48.52
2023-05-19T19:19:26.462Z,48.93
2023-05-19T19:21:33.050Z,48.99
2023-05-19T19:23:37.228Z,48.94
2023-05-19T19:25:40.789Z,49.31
2023-05-19T19:27:45.693Z,49.18
2023-05-19T19:29:51.865Z,49.15
2023-05-19T19:31:54.556Z,49.33
2023-05-19T19:34:01.730Z,49.54
2023-05-19T19:36:07.882Z,49.66
2023-05-19T19:38:14.972Z,49.68
2023-05-19T19:40:23.108Z,49.68
2023-05-19T19:42:27.062Z,49.90
2023-05-19T19:44:30.161Z,49.98
2023-05-19T19:46:34.713Z,50.12
2023-05-19T19:48:42.155Z,50.11
2023-05-19T19:50:52.875Z,50.19
2023-05-19T19:52:55.480Z,50.46
2023-05-19T19:55:00.473Z,50.54
2023-05-19T19:57:05.480Z,50.68
2023-05-19T19:59:08.379Z,50.83
2023-05-19T20:01:12.218Z,50.83
2023-05-19T20:03:17.983Z,51.07
2023-05-19T20:05:21.944Z,51.17
2023-05-19T20:07:27.111Z,51.32
2023-05-19T20:09:31.532Z,51.41
2023-05-19T20:11:37.491Z,51.53
2023-05-19T20:13:43.765Z,51.62
2023-05-19T20:15:48.099Z,51.65
2023-05-19T20:17:51.777Z,51.80
2023-05-19T20:19:55.211Z,51.89
2023-05-19T20:21:59.852Z,51.95
2023-05-19T20:24:08.075Z,52.25
2023-05-19T20:26:15.167Z,52.32
2023-05-19T20:28:26.157Z,52.29
2023-05-19T20:30:29.072Z,52.27
2023-05-19T20:32:36.127Z,52.71
2023-05-19T20:34:42.331Z,52.58
2023-05-19T20:36:47.683Z,52.77
2023-05-19T20:38:51.813Z,52.88
2023-05-19T20:41:00.575Z,53.02
2023-05-19T20:43:33.376Z,52.96
2023-05-19T20:45:41.354Z,53.25
2023-05-19T20:47:44.610Z,53.27
2023-05-19T20:49:50.034Z,53.43
2023-05-19T20:52:04.575Z,53.37
2023-05-19T20:54:10.574Z,53.49
2023-05-19T20:56:21.401Z,53.85
2023-05-19T20:58:34.285Z,53.87
2023-05-19T21:00:43.035Z,53.79
2023-05-19T21:02:51.517Z,53.92
2023-05-19T21:07:32.993Z,54.24
2023-05-19T21:09:52.107Z,54.26
2023-05-19T21:12:06.014Z,54.27
2023-05-19T21:14:35.671Z,54.45
2023-05-19T21:16:43.642Z,54.46
2023-05-19T21:18:49.670Z,54.47
2023-05-19T21:20:54.884Z,54.64
2023-05-19T21:23:01.901Z,54.75
2023-05-19T21:25:19.823Z,54.83
2023-05-19T21:27:22.866Z,54.78
2023-05-19T21:29:29.138Z,54.79
2023-05-19T21:31:47.462Z,54.75
2023-05-19T21:33:54.233Z,54.82
2023-05-19T21:36:04.184Z,54.90
2023-05-19T21:38:32.455Z,55.24
2023-05-19T21:41:04.565Z,55.26
2023-05-19T21:43:21.633Z,55.31
2023-05-19T21:45:27.218Z,55.51
2023-05-19T21:47:32.232Z,55.22
2023-05-19T21:49:40.353Z,55.27
2023-05-19T21:51:50.501Z,55.37
2023-05-19T21:54:08.752Z,55.45
2023-05-19T21:58:35.876Z,55.62
2023-05-19T22:01:11.353Z,55.78
2023-05-19T22:05:42.821Z,56.01
2023-05-19T22:07:51.267Z,55.96
2023-05-19T22:10:05.990Z,55.99
2023-05-19T22:12:14.621Z,56.16
2023-05-19T22:14:23.829Z,56.28
2023-05-19T22:16:36.505Z,56.32
2023-05-19T22:18:42.427Z,56.52
2023-05-19T22:21:02.792Z,56.62
2023-05-19T22:23:07.167Z,56.83
2023-05-19T22:25:22.846Z,57.15
2023-05-19T22:27:26.877Z,57.25
2023-05-19T22:29:31.189Z,57.45
2023-05-19T22:31:34.991Z,57.45
2023-05-19T22:33:41.207Z,57.58
2023-05-19T22:35:52.351Z,57.74
2023-05-19T22:37:56.660Z,57.84
2023-05-19T22:40:16.108Z,57.72
2023-05-19T22:42:20.416Z,58.01
2023-05-19T22:44:28.205Z,58.00
2023-05-19T22:46:36.496Z,57.74
2023-05-19T22:48:41.324Z,58.15
2023-05-19T22:50:49.527Z,58.28
2023-05-19T22:52:56.140Z,58.17
2023-05-19T22:54:59.467Z,58.22
2023-05-19T22:57:14.516Z,58.40
2023-05-19T22:59:19.153Z,58.49
2023-05-19T23:01:30.211Z,58.49
2023-05-19T23:03:39.760Z,58.58
2023-05-19T23:05:44.349Z,58.82
2023-05-19T23:07:51.648Z,58.73
2023-05-19T23:09:56.592Z,58.78
2023-05-19T23:12:04.590Z,58.92
2023-05-19T23:14:35.316Z,58.90
2023-05-19T23:16:42.497Z,59.06
2023-05-19T23:18:46.473Z,59.08
2023-05-19T23:20:59.905Z,59.17
2023-05-19T23:23:05.777Z,59.52
2023-05-19T23:25:15.060Z,59.51
2023-05-19T23:27:32.196Z,59.69
2023-05-19T23:29:35.356Z,59.71
2023-05-19T23:31:39.785Z,59.62
2023-05-19T23:33:49.158Z,59.86
2023-05-19T23:36:07.998Z,59.83
2023-05-19T23:38:28.594Z,59.96
2023-05-19T23:40:34.048Z,60.01
2023-05-19T23:42:52.007Z,60.02
2023-05-19T23:45:06.203Z,60.35
2023-05-19T23:47:12.179Z,60.36
2023-05-19T23:49:23.811Z,60.47
2023-05-19T23:51:36.793Z,60.48
2023-05-19T23:53:58.207Z,60.61
2023-05-19T23:56:07.269Z,60.78
2023-05-19T23:58:18.752Z,60.83
